Time;durP1;ratioP1;P1;durP2;ratioP2;P2;SDS_P1;SDS_P2;PMS_P1;PMS_P2;Temp;Humidity;BMP_temperature;BMP_pressure;BME280_temperature;BME280_humidity;BME280_pressure;Samples;Min_cycle;Max_cycle;Signal;HPM_P1;HPM_P2
2021/06/17 00:00:01;;;;;;;3.60;2.50;;;24.30;61.00;;;;;;5065244;28;20036;-82
2021/06/17 00:02:26;;;;;;;5.85;2.58;;;24.30;61.00;;;;;;5053254;28;20573;-81
2021/06/17 00:04:52;;;;;;;3.75;2.20;;;24.30;60.90;;;;;;5056934;28;20115;-80
2021/06/17 00:07:18;;;;;;;3.40;2.22;;;24.30;60.70;;;;;;5042702;28;20032;-83
2021/06/17 00:09:43;;;;;;;2.80;2.50;;;24.30;60.50;;;;;;5071088;28;20032;-78
2021/06/17 00:12:09;;;;;;;4.78;2.60;;;24.30;60.70;;;;;;5064329;28;20036;-78
2021/06/17 00:14:35;;;;;;;2.58;2.25;;;24.30;60.40;;;;;;5045052;28;20037;-79
2021/06/17 00:17:02;;;;;;;2.55;1.98;;;24.30;60.50;;;;;;5053579;28;20029;-77
2021/06/17 00:19:28;;;;;;;3.75;2.45;;;24.30;60.10;;;;;;5040876;28;20106;-78
2021/06/17 00:21:54;;;;;;;3.25;2.05;;;24.30;59.90;;;;;;5075671;28;20028;-78
2021/06/17 00:24:20;;;;;;;3.58;2.08;;;24.30;59.70;;;;;;5065398;28;20036;-80
2021/06/17 00:26:46;;;;;;;3.25;2.47;;;24.20;59.60;;;;;;5038756;28;20158;-77
2021/06/17 00:29:12;;;;;;;2.35;2.00;;;24.20;60.10;;;;;;5038506;28;20120;-77
2021/06/17 00:31:39;;;;;;;4.18;2.30;;;24.20;60.10;;;;;;5038524;28;20389;-79
2021/06/17 00:34:08;;;;;;;4.28;2.30;;;24.20;59.90;;;;;;5038702;28;20055;-79
2021/06/17 00:36:34;;;;;;;4.05;1.85;;;24.20;59.70;;;;;;5038435;28;20029;-79
2021/06/17 00:39:00;;;;;;;2.63;1.92;;;24.10;59.40;;;;;;5038510;28;20032;-79
2021/06/17 00:41:26;;;;;;;3.60;1.95;;;24.10;59.80;;;;;;5037943;28;20553;-79
2021/06/17 00:43:51;;;;;;;4.90;2.20;;;24.10;60.20;;;;;;5038311;28;20053;-79
2021/06/17 00:46:17;;;;;;;4.25;2.25;;;24.10;59.80;;;;;;5038012;28;20029;-79
2021/06/17 00:48:42;;;;;;;3.60;1.80;;;24.10;59.80;;;;;;5038291;28;20103;-79
2021/06/17 00:51:08;;;;;;;2.00;1.70;;;24.00;59.70;;;;;;5037754;28;20037;-79
2021/06/17 00:53:34;;;;;;;2.75;2.20;;;24.00;60.00;;;;;;5037577;28;20033;-79
2021/06/17 00:56:01;;;;;;;3.17;2.00;;;23.90;60.10;;;;;;5038231;28;20025;-79
2021/06/17 00:58:27;;;;;;;3.42;1.65;;;23.90;59.90;;;;;;5038100;28;20466;-79
2021/06/17 01:00:53;;;;;;;4.35;2.15;;;23.80;60.60;;;;;;5037809;28;20025;-79
2021/06/17 01:03:19;;;;;;;4.72;2.60;;;23.80;61.00;;;;;;5037330;28;20025;-78
2021/06/17 01:05:45;;;;;;;3.95;2.00;;;23.70;60.50;;;;;;5038052;28;20029;-79
2021/06/17 01:08:18;;;;;;;2.30;1.92;;;23.80;60.20;;;;;;5037815;28;20032;-79
2021/06/17 01:11:21;;;;;;;3.22;2.20;;;23.70;60.40;;;;;;5038005;28;20031;-79
2021/06/17 01:13:53;;;;;;;3.67;2.03;;;23.70;60.00;;;;;;5037732;28;20041;-79
2021/06/17 01:16:18;;;;;;;;;;;23.70;60.30;;;;;;5037612;28;20036;-78
2021/06/17 01:18:50;;;;;;;3.15;2.20;;;23.70;60.40;;;;;;5037639;28;19909;-78
2021/06/17 01:21:41;;;;;;;2.70;2.10;;;23.70;60.50;;;;;;5037437;28;20025;-82
2021/06/17 01:24:22;;;;;;;3.58;2.08;;;23.70;60.40;;;;;;5037913;28;20025;-78
2021/06/17 01:27:07;;;;;;;6.10;2.42;;;23.70;60.30;;;;;;5037737;28;20381;-78
2021/06/17 01:29:36;;;;;;;2.65;2.10;;;23.70;60.20;;;;;;5037000;28;20117;-79
2021/06/17 01:32:04;;;;;;;2.47;2.17;;;23.70;60.40;;;;;;5037503;28;20466;-78
2021/06/17 01:34:30;;;;;;;3.20;2.00;;;23.60;60.40;;;;;;5037024;28;20067;-79
2021/06/17 01:37:07;;;;;;;2.67;2.05;;;23.60;60.20;;;;;;5037445;28;20110;-79
2021/06/17 01:39:35;;;;;;;2.00;1.80;;;23.60;60.30;;;;;;5036727;28;20114;-79
2021/06/17 01:42:03;;;;;;;3.95;2.30;;;23.50;60.20;;;;;;5037406;28;20025;-78
2021/06/17 01:44:29;;;;;;;2.33;2.03;;;23.50;60.20;;;;;;5036467;28;20053;-78
2021/06/17 01:46:55;;;;;;;2.60;1.88;;;23.50;60.00;;;;;;5037236;28;20060;-78
2021/06/17 01:49:22;;;;;;;4.03;2.20;;;23.40;60.50;;;;;;5036522;28;20033;-78
2021/06/17 01:51:51;;;;;;;3.15;2.08;;;23.40;60.40;;;;;;5054706;28;20025;-78
2021/06/17 01:54:24;;;;;;;3.17;2.35;;;23.40;59.90;;;;;;5037095;28;20086;-78
2021/06/17 01:56:52;;;;;;;4.90;2.13;;;23.40;60.10;;;;;;5036953;28;20025;-78
2021/06/17 01:59:19;;;;;;;3.30;1.98;;;23.40;59.50;;;;;;5054523;28;20536;-79
2021/06/17 02:01:46;;;;;;;2.88;2.00;;;23.40;59.60;;;;;;5035847;28;20464;-78
2021/06/17 02:04:13;;;;;;;2.75;2.00;;;23.30;59.70;;;;;;5054522;28;20029;-78
2021/06/17 02:06:41;;;;;;;4.00;1.92;;;23.20;59.80;;;;;;5036373;28;20166;-78
2021/06/17 02:09:08;;;;;;;2.50;2.00;;;23.20;59.90;;;;;;5036772;28;20040;-78
2021/06/17 02:11:36;;;;;;;3.60;2.00;;;23.20;60.00;;;;;;5035777;28;20025;-78
2021/06/17 02:14:03;;;;;;;2.63;2.13;;;23.10;60.50;;;;;;5036711;28;20090;-78
2021/06/17 02:16:32;;;;;;;3.55;1.95;;;23.00;60.40;;;;;;5036380;28;20484;-78
2021/06/17 02:18:59;;;;;;;3.17;1.98;;;23.00;60.60;;;;;;5036409;28;20029;-79
2021/06/17 02:21:28;;;;;;;2.22;1.75;;;22.90;60.20;;;;;;5035987;28;20029;-79
2021/06/17 02:23:57;;;;;;;3.17;2.30;;;23.00;59.80;;;;;;5036499;28;20029;-80
2021/06/17 02:26:25;;;;;;;2.40;2.10;;;23.00;59.50;;;;;;5036196;28;20116;-81
2021/06/17 02:28:53;;;;;;;2.53;2.00;;;22.90;59.30;;;;;;5036947;28;20078;-80
2021/06/17 02:31:23;;;;;;;3.05;1.83;;;22.90;59.40;;;;;;5036324;28;20125;-79
2021/06/17 02:33:50;;;;;;;3.35;2.00;;;22.80;59.50;;;;;;5054282;28;20377;-80
2021/06/17 02:36:26;;;;;;;3.35;2.10;;;22.80;59.90;;;;;;5036679;28;20021;-80
2021/06/17 02:38:55;;;;;;;2.88;2.33;;;22.70;61.00;;;;;;5053915;28;20493;-80
2021/06/17 02:41:22;;;;;;;3.97;2.53;;;22.80;61.70;;;;;;5036511;28;20032;-83
2021/06/17 02:43:51;;;;;;;3.38;2.35;;;22.80;61.40;;;;;;5036369;28;20119;-80
2021/06/17 02:46:17;;;;;;;2.88;2.38;;;22.90;61.30;;;;;;5036186;28;20465;-80
2021/06/17 02:48:43;;;;;;;3.97;2.40;;;22.90;61.90;;;;;;5035956;28;20025;-80
2021/06/17 02:51:09;;;;;;;2.60;2.03;;;22.90;62.00;;;;;;5054031;28;20535;-80
2021/06/17 02:53:34;;;;;;;3.30;2.25;;;22.70;61.80;;;;;;5035803;28;20039;-80
2021/06/17 02:56:05;;;;;;;3.75;2.45;;;22.60;62.30;;;;;;5036791;28;20025;-80
2021/06/17 02:59:01;;;;;;;3.57;2.43;;;22.50;62.70;;;;;;5035809;28;20473;-80
2021/06/17 03:01:39;;;;;;;3.65;2.30;;;22.50;63.20;;;;;;5035549;28;20465;-80
2021/06/17 03:04:13;;;;;;;3.42;2.33;;;22.50;62.90;;;;;;5036219;28;20035;-80
2021/06/17 03:06:43;;;;;;;2.80;2.42;;;22.50;63.10;;;;;;5035772;28;20488;-80
2021/06/17 03:09:37;;;;;;;5.22;2.47;;;22.50;63.40;;;;;;5035955;28;20041;-80
2021/06/17 03:12:04;;;;;;;2.63;2.28;;;22.50;63.50;;;;;;5036156;28;20083;-80
2021/06/17 03:14:37;;;;;;;4.68;2.60;;;22.50;63.50;;;;;;5053187;28;20079;-80
2021/06/17 03:17:03;;;;;;;4.88;2.40;;;22.50;63.70;;;;;;5036033;28;20024;-79
2021/06/17 03:19:32;;;;;;;4.85;3.03;;;22.40;63.60;;;;;;5035363;28;20036;-80
2021/06/17 03:22:02;;;;;;;4.15;2.67;;;22.40;64.00;;;;;;5035983;28;20083;-80
2021/06/17 03:24:33;;;;;;;3.40;2.20;;;22.30;64.50;;;;;;5035298;28;20025;-78
2021/06/17 03:27:01;;;;;;;3.72;2.40;;;22.20;64.40;;;;;;5035887;28;20048;-78
2021/06/17 03:29:32;;;;;;;3.80;2.50;;;22.30;65.20;;;;;;5035164;28;20079;-78
2021/06/17 03:31:58;;;;;;;3.90;2.40;;;22.30;65.30;;;;;;5035137;28;20052;-78
2021/06/17 03:34:25;;;;;;;4.18;2.40;;;22.30;65.70;;;;;;5053159;28;20030;-81
2021/06/17 03:36:52;;;;;;;2.53;2.33;;;22.20;66.10;;;;;;5035486;28;20457;-78
2021/06/17 03:39:20;;;;;;;4.50;2.53;;;22.20;66.50;;;;;;5035413;28;20029;-79
2021/06/17 03:41:48;;;;;;;3.88;2.80;;;22.10;66.10;;;;;;5034855;28;20025;-78
2021/06/17 03:44:15;;;;;;;5.13;2.95;;;22.00;66.60;;;;;;5034621;28;20134;-78
2021/06/17 03:46:42;;;;;;;5.10;2.60;;;22.00;67.00;;;;;;5035082;28;20025;-78
2021/06/17 03:49:09;;;;;;;4.10;2.90;;;21.90;67.60;;;;;;5034901;28;20029;-78
2021/06/17 03:51:37;;;;;;;4.07;2.55;;;22.00;68.20;;;;;;5052358;28;20055;-78
2021/06/17 03:54:04;;;;;;;3.53;2.53;;;22.00;68.30;;;;;;5035038;28;20036;-78
2021/06/17 03:56:29;;;;;;;3.28;2.75;;;22.00;68.20;;;;;;5034576;28;20033;-79
2021/06/17 03:58:55;;;;;;;3.58;2.40;;;22.00;68.60;;;;;;5035326;28;20123;-78
2021/06/17 04:01:21;;;;;;;3.67;2.92;;;22.00;69.10;;;;;;5034938;28;20021;-78
2021/06/17 04:03:48;;;;;;;3.50;2.63;;;21.90;69.60;;;;;;5034811;28;20116;-78
2021/06/17 04:06:17;;;;;;;7.20;2.78;;;22.00;69.40;;;;;;5053047;28;20017;-78
2021/06/17 04:08:48;;;;;;;2.88;2.45;;;21.90;69.70;;;;;;5052053;28;20050;-79
2021/06/17 04:11:15;;;;;;;5.20;2.60;;;22.00;69.90;;;;;;5035161;28;20025;-78
2021/06/17 04:13:43;;;;;;;4.50;2.45;;;21.90;70.00;;;;;;5034534;28;20059;-78
2021/06/17 04:16:15;;;;;;;5.25;2.60;;;21.90;69.90;;;;;;5035500;28;20032;-78
2021/06/17 04:18:43;;;;;;;4.25;2.42;;;22.00;69.20;;;;;;5034617;28;20062;-78
2021/06/17 04:21:12;;;;;;;5.20;2.55;;;22.10;69.20;;;;;;5034961;28;20478;-78
2021/06/17 04:23:40;;;;;;;3.47;3.00;;;22.10;69.60;;;;;;5034430;28;20483;-78
2021/06/17 04:26:07;;;;;;;4.07;2.85;;;22.10;70.30;;;;;;5037047;28;20040;-78
2021/06/17 04:28:33;;;;;;;3.20;2.50;;;22.00;70.60;;;;;;5037190;28;20025;-78
2021/06/17 04:31:01;;;;;;;3.53;2.85;;;21.90;71.10;;;;;;5056295;28;20041;-79
2021/06/17 04:33:27;;;;;;;3.55;2.40;;;21.80;70.90;;;;;;5038248;28;20056;-78
2021/06/17 04:35:59;;;;;;;3.13;2.83;;;21.80;71.80;;;;;;5056185;28;20041;-78
2021/06/17 04:38:26;;;;;;;3.72;2.67;;;21.70;71.80;;;;;;5038629;28;20531;-78
2021/06/17 04:40:52;;;;;;;3.22;2.50;;;21.80;71.80;;;;;;5037877;28;20116;-78
2021/06/17 04:43:22;;;;;;;5.72;3.00;;;21.80;71.50;;;;;;5037918;28;20045;-78
2021/06/17 04:45:52;;;;;;;3.95;2.90;;;21.80;71.70;;;;;;5055532;28;20434;-78
2021/06/17 04:48:21;;;;;;;4.18;2.50;;;21.80;71.70;;;;;;5038381;28;20029;-78
2021/06/17 04:50:47;;;;;;;3.38;2.67;;;21.80;72.00;;;;;;5037667;28;20029;-78
2021/06/17 04:53:16;;;;;;;4.13;2.70;;;21.80;72.20;;;;;;5055359;28;20112;-78
2021/06/17 04:56:01;;;;;;;3.65;2.63;;;21.90;72.30;;;;;;5037525;28;20462;-77
2021/06/17 04:58:27;;;;;;;4.45;2.90;;;21.90;72.50;;;;;;5037216;28;20033;-78
2021/06/17 05:00:53;;;;;;;4.20;2.40;;;21.80;71.80;;;;;;5037381;28;20025;-78
2021/06/17 05:03:19;;;;;;;4.13;2.55;;;21.80;71.30;;;;;;5055232;28;20462;-77
2021/06/17 05:05:50;;;;;;;4.40;2.53;;;21.80;70.80;;;;;;5037370;28;20029;-78
2021/06/17 05:10:50;;;;;;;8.43;2.63;;;21.90;70.70;;;;;;5054896;28;20037;-77
2021/06/17 05:13:25;;;;;;;3.53;3.05;;;21.90;69.30;;;;;;5037592;28;20045;-78
2021/06/17 05:15:52;;;;;;;2.58;2.33;;;21.90;69.30;;;;;;5036738;28;20029;-78
2021/06/17 05:18:20;;;;;;;3.85;2.50;;;21.90;69.90;;;;;;5037334;28;20029;-78
2021/06/17 05:20:46;;;;;;;4.05;2.75;;;21.90;70.00;;;;;;5037054;28;20029;-78
2021/06/17 05:23:14;;;;;;;4.97;3.42;;;22.00;70.00;;;;;;5055484;28;20025;-78
2021/06/17 05:25:41;;;;;;;4.30;3.00;;;22.00;70.20;;;;;;5037063;28;20025;-77
2021/06/17 05:28:06;;;;;;;4.60;3.20;;;22.10;70.60;;;;;;5037247;28;20036;-79
2021/06/17 05:30:32;;;;;;;5.32;3.75;;;22.10;71.10;;;;;;5037187;28;20029;-81
2021/06/17 05:32:57;;;;;;;5.85;3.70;;;22.10;70.40;;;;;;5037820;28;20037;-79
2021/06/17 05:35:23;;;;;;;6.38;4.05;;;22.20;70.40;;;;;;5037644;28;20052;-79
2021/06/17 05:37:49;;;;;;;6.13;4.03;;;22.20;70.50;;;;;;5036838;28;20112;-79
2021/06/17 05:40:15;;;;;;;7.38;3.78;;;22.30;70.70;;;;;;5037470;28;20127;-79
2021/06/17 05:42:41;;;;;;;5.10;4.05;;;22.30;71.10;;;;;;5036551;28;20061;-79
2021/06/17 05:45:07;;;;;;;6.20;4.00;;;22.40;71.20;;;;;;5037397;28;20033;-79
2021/06/17 05:47:32;;;;;;;5.50;3.92;;;22.40;71.00;;;;;;5036345;28;20017;-79
2021/06/17 05:49:58;;;;;;;4.70;3.90;;;22.40;71.50;;;;;;5037292;28;20436;-78
2021/06/17 05:52:24;;;;;;;4.78;3.65;;;22.40;71.00;;;;;;5037108;28;20029;-78
2021/06/17 05:54:49;;;;;;;6.20;3.70;;;22.50;70.60;;;;;;5036648;28;20025;-78
2021/06/17 05:57:15;;;;;;;5.80;3.67;;;22.50;70.50;;;;;;5036877;28;20033;-78
2021/06/17 05:59:40;;;;;;;4.28;3.20;;;22.50;70.70;;;;;;5036283;28;20031;-79
2021/06/17 06:02:06;;;;;;;3.92;3.28;;;22.60;70.30;;;;;;5036926;28;20048;-81
2021/06/17 06:04:32;;;;;;;3.85;2.95;;;22.70;69.10;;;;;;5037712;28;20025;-80
2021/06/17 06:06:58;;;;;;;4.18;2.67;;;22.70;67.40;;;;;;5037400;28;20025;-80
2021/06/17 06:09:24;;;;;;;4.25;3.00;;;22.80;66.00;;;;;;5037301;28;20025;-80
2021/06/17 06:11:50;;;;;;;5.30;3.17;;;22.80;66.20;;;;;;5036943;28;20029;-80
2021/06/17 06:14:15;;;;;;;3.65;2.63;;;22.90;65.70;;;;;;5036888;28;20033;-80
2021/06/17 06:16:42;;;;;;;4.35;3.03;;;22.90;65.70;;;;;;5036674;28;20381;-81
2021/06/17 06:19:07;;;;;;;4.15;2.92;;;23.00;65.50;;;;;;5036771;28;20029;-81
2021/06/17 06:21:33;;;;;;;4.13;2.97;;;23.00;66.60;;;;;;5036683;28;20121;-80
2021/06/17 06:23:59;;;;;;;4.93;2.90;;;23.00;67.10;;;;;;5036771;28;20056;-80
2021/06/17 06:26:25;;;;;;;5.00;3.00;;;23.10;66.30;;;;;;5036816;28;20127;-81
2021/06/17 06:28:51;;;;;;;4.85;3.53;;;23.20;66.30;;;;;;5035964;28;20457;-80
2021/06/17 06:31:16;;;;;;;7.55;3.50;;;23.30;66.70;;;;;;5037119;28;20473;-81
2021/06/17 06:33:42;;;;;;;4.63;3.50;;;23.30;66.30;;;;;;5036530;28;20057;-81
2021/06/17 06:36:08;;;;;;;6.03;3.17;;;23.30;66.60;;;;;;5036703;28;20167;-81
2021/06/17 06:38:34;;;;;;;5.47;3.47;;;23.40;66.90;;;;;;5036827;28;20481;-81
2021/06/17 06:41:00;;;;;;;4.82;4.00;;;23.40;67.60;;;;;;5035751;28;20036;-82
2021/06/17 06:43:26;;;;;;;4.20;3.40;;;23.50;66.50;;;;;;5036284;28;20064;-79
2021/06/17 06:45:52;;;;;;;4.78;3.30;;;23.50;66.40;;;;;;5035834;28;20024;-80
2021/06/17 06:48:18;;;;;;;5.32;3.47;;;23.60;66.80;;;;;;5035604;28;20476;-79
2021/06/17 06:50:47;;;;;;;3.70;3.10;;;23.70;66.20;;;;;;5035826;28;20063;-80
2021/06/17 06:53:13;;;;;;;7.28;3.47;;;23.70;66.50;;;;;;5036165;28;20033;-80
2021/06/17 06:55:38;;;;;;;6.45;3.88;;;23.80;66.70;;;;;;5035505;28;20047;-80
2021/06/17 06:58:04;;;;;;;8.23;4.28;;;23.80;66.70;;;;;;5053626;28;20082;-81
2021/06/17 07:00:31;;;;;;;10.82;5.10;;;24.00;66.70;;;;;;5035448;28;20033;-79
2021/06/17 07:02:56;;;;;;;11.82;4.90;;;24.10;65.70;;;;;;5035182;28;20078;-80
2021/06/17 07:05:22;;;;;;;9.70;4.10;;;24.20;65.50;;;;;;5035615;28;20021;-79
2021/06/17 07:07:47;;;;;;;8.68;4.03;;;24.30;65.10;;;;;;5035236;28;20032;-79
2021/06/17 07:10:13;;;;;;;8.60;4.93;;;24.30;64.90;;;;;;5035859;28;20025;-79
2021/06/17 07:12:39;;;;;;;6.10;3.90;;;24.40;65.00;;;;;;5035129;28;20025;-80
2021/06/17 07:15:06;;;;;;;7.28;3.85;;;24.50;63.90;;;;;;5035427;28;20090;-80
2021/06/17 07:17:32;;;;;;;5.78;3.85;;;24.50;64.20;;;;;;5036169;28;20025;-81
2021/06/17 07:19:58;;;;;;;5.72;3.90;;;24.60;63.40;;;;;;5035236;28;20431;-81
2021/06/17 07:22:24;;;;;;;5.50;3.88;;;24.60;63.10;;;;;;5035916;28;20029;-81
2021/06/17 07:24:53;;;;;;;5.90;3.53;;;24.60;63.30;;;;;;5035382;28;20031;-81
2021/06/17 07:27:19;;;;;;;7.65;4.03;;;24.70;63.70;;;;;;5035870;28;20025;-81
2021/06/17 07:29:45;;;;;;;6.18;3.38;;;24.70;63.50;;;;;;5035345;28;20029;-81
2021/06/17 07:32:10;;;;;;;6.93;3.58;;;24.80;63.40;;;;;;5053539;28;20029;-81
2021/06/17 07:34:36;;;;;;;5.80;3.22;;;24.90;63.20;;;;;;5035718;28;20036;-80
2021/06/17 07:37:02;;;;;;;6.65;3.63;;;24.90;62.70;;;;;;5034853;28;20374;-81
2021/06/17 07:39:28;;;;;;;6.57;3.22;;;24.90;63.40;;;;;;5035501;28;20532;-81
2021/06/17 07:41:54;;;;;;;3.97;3.20;;;25.00;61.20;;;;;;5034658;28;20047;-81
2021/06/17 07:44:20;;;;;;;8.73;3.47;;;25.10;60.40;;;;;;5034857;28;20493;-81
2021/06/17 07:46:45;;;;;;;5.38;3.45;;;25.20;60.00;;;;;;5035249;28;20031;-81
2021/06/17 07:49:11;;;;;;;5.20;2.97;;;25.20;60.30;;;;;;5035342;28;20025;-80
2021/06/17 07:51:37;;;;;;;6.35;3.30;;;25.30;60.40;;;;;;5035587;28;20064;-80
2021/06/17 07:54:03;;;;;;;5.05;3.08;;;25.30;60.30;;;;;;5035185;28;20021;-81
2021/06/17 07:56:30;;;;;;;10.00;3.40;;;25.30;61.30;;;;;;5035581;28;20536;-80
2021/06/17 07:58:57;;;;;;;6.57;3.70;;;25.40;61.70;;;;;;5070116;28;20025;-81
2021/06/17 08:01:22;;;;;;;4.65;3.15;;;25.50;60.00;;;;;;5058125;28;20039;-79
2021/06/17 08:03:49;;;;;;;3.70;3.00;;;25.60;60.00;;;;;;5058787;28;20020;-81
2021/06/17 08:06:15;;;;;;;5.10;3.17;;;25.70;58.90;;;;;;5059772;28;20032;-81
2021/06/17 08:08:42;;;;;;;4.63;3.38;;;25.90;59.00;;;;;;5076494;28;20078;-83
2021/06/17 08:11:08;;;;;;;4.05;3.65;;;25.90;58.90;;;;;;5059265;28;20472;-81
2021/06/17 08:13:34;;;;;;;5.43;3.70;;;26.00;59.10;;;;;;5059430;28;20033;-78
2021/06/17 08:15:59;;;;;;;5.32;3.40;;;26.10;59.30;;;;;;5052610;28;20056;-80
2021/06/17 08:18:25;;;;;;;6.97;3.10;;;26.20;58.50;;;;;;5048263;28;20021;-79
2021/06/17 08:20:54;;;;;;;3.55;3.00;;;26.20;56.70;;;;;;5055957;28;20481;-80
2021/06/17 08:23:21;;;;;;;6.20;3.30;;;26.30;58.30;;;;;;5058262;28;20020;-81
2021/06/17 08:25:48;;;;;;;3.83;3.20;;;26.40;57.10;;;;;;5057562;28;20025;-81
2021/06/17 08:28:14;;;;;;;5.68;3.22;;;26.50;57.40;;;;;;5055449;28;20028;-81
2021/06/17 08:30:40;;;;;;;3.83;3.22;;;26.60;56.10;;;;;;5055151;28;20074;-77
2021/06/17 08:33:05;;;;;;;3.35;2.90;;;26.60;56.80;;;;;;5067853;28;20033;-77
2021/06/17 08:35:31;;;;;;;4.28;3.20;;;26.70;55.30;;;;;;5056825;28;20028;-81
2021/06/17 08:37:57;;;;;;;5.70;2.80;;;26.80;56.50;;;;;;5055890;28;20024;-80
2021/06/17 08:40:30;;;;;;;5.05;3.17;;;26.80;56.50;;;;;;5057857;28;20063;-79
2021/06/17 08:42:59;;;;;;;5.35;2.70;;;26.90;55.80;;;;;;5056666;28;20454;-80
2021/06/17 08:45:26;;;;;;;6.43;3.20;;;27.00;55.90;;;;;;5054876;28;20029;-80
2021/06/17 08:47:52;;;;;;;5.13;2.95;;;27.00;55.70;;;;;;5057252;28;20159;-78
2021/06/17 08:50:18;;;;;;;4.90;3.22;;;27.00;53.90;;;;;;5057875;28;20032;-78
2021/06/17 08:52:45;;;;;;;4.60;3.20;;;27.10;53.60;;;;;;5061738;28;20055;-81
2021/06/17 08:55:26;;;;;;;6.57;3.92;;;27.10;54.80;;;;;;5038043;28;20021;-80
2021/06/17 08:57:53;;;;;;;5.05;3.15;;;27.10;54.60;;;;;;5055207;28;20025;-80
2021/06/17 09:00:23;;;;;;;5.07;4.07;;;27.10;55.60;;;;;;5037312;28;20116;-80
2021/06/17 09:03:16;;;;;;;4.65;4.10;;;27.10;56.00;;;;;;5036708;28;20012;-80
2021/06/17 09:05:53;;;;;;;5.35;3.88;;;27.20;57.00;;;;;;5051774;28;20115;-82
2021/06/17 09:08:28;;;;;;;5.72;4.05;;;27.20;57.10;;;;;;5049626;28;20529;-81
2021/06/17 09:10:55;;;;;;;7.88;3.95;;;27.20;57.20;;;;;;5036885;28;20071;-78
2021/06/17 09:13:26;;;;;;;7.38;4.30;;;27.20;57.60;;;;;;5055681;28;20098;-80
2021/06/17 09:15:54;;;;;;;4.30;3.80;;;27.20;58.20;;;;;;5036880;28;20029;-78
2021/06/17 09:18:31;;;;;;;6.68;4.60;;;27.30;57.80;;;;;;5037993;28;20017;-81
2021/06/17 09:21:08;;;;;;;5.22;3.83;;;27.30;58.00;;;;;;5041480;28;20056;-81
2021/06/17 09:23:38;;;;;;;5.35;4.40;;;27.30;57.80;;;;;;5070716;28;20021;-81
2021/06/17 09:26:22;;;;;;;6.72;4.55;;;27.30;57.60;;;;;;5037207;28;20029;-81
2021/06/17 09:28:57;;;;;;;6.18;4.57;;;27.30;57.40;;;;;;5036791;28;20028;-80
2021/06/17 09:31:31;;;;;;;5.93;4.35;;;27.40;57.80;;;;;;5054398;28;20474;-80
2021/06/17 09:33:58;;;;;;;7.57;4.80;;;27.50;57.80;;;;;;5057031;28;20475;-79
2021/06/17 09:36:32;;;;;;;7.35;4.53;;;27.40;57.40;;;;;;5057190;28;20028;-80
2021/06/17 09:39:19;;;;;;;8.48;5.15;;;27.50;56.90;;;;;;5057265;28;20024;-79
2021/06/17 09:41:51;;;;;;;5.68;4.28;;;27.50;57.40;;;;;;5057564;28;20024;-79
2021/06/17 09:44:31;;;;;;;5.50;4.60;;;27.50;57.00;;;;;;5074457;28;20484;-80
2021/06/17 09:47:24;;;;;;;5.50;4.30;;;27.60;56.20;;;;;;5056494;28;20032;-80
2021/06/17 09:49:51;;;;;;;6.82;4.05;;;27.60;56.00;;;;;;5054032;28;20175;-80
2021/06/17 09:52:18;;;;;;;6.35;4.13;;;27.50;56.00;;;;;;5041216;28;20036;-79
2021/06/17 09:54:44;;;;;;;5.18;3.55;;;27.60;55.50;;;;;;5055040;28;20021;-79
2021/06/17 09:57:20;;;;;;;6.68;4.00;;;27.60;55.30;;;;;;5024472;28;20472;-80
2021/06/17 09:59:51;;;;;;;5.68;3.90;;;27.70;55.20;;;;;;5036801;28;20035;-83
2021/06/17 10:02:24;;;;;;;5.72;3.78;;;27.80;55.30;;;;;;5037307;28;20017;-81
2021/06/17 10:05:13;;;;;;;7.78;4.28;;;27.90;55.30;;;;;;5037025;28;20056;-82
2021/06/17 10:07:39;;;;;;;4.85;4.15;;;27.90;55.50;;;;;;5054754;28;20445;-80
2021/06/17 10:10:05;;;;;;;5.40;3.90;;;27.90;55.00;;;;;;5036751;28;20373;-80
2021/06/17 10:12:31;;;;;;;5.70;4.30;;;27.90;54.90;;;;;;5035658;28;20028;-80
2021/06/17 10:14:59;;;;;;;5.13;3.83;;;27.90;54.70;;;;;;5035542;28;20036;-80
2021/06/17 10:17:26;;;;;;;4.35;3.90;;;28.00;54.50;;;;;;5036864;28;20028;-79
2021/06/17 10:19:53;;;;;;;4.60;3.70;;;28.10;53.80;;;;;;5036312;28;20090;-80
2021/06/17 10:22:28;;;;;;;4.78;3.90;;;28.10;53.80;;;;;;5036297;28;20338;-80
2021/06/17 10:24:54;;;;;;;7.20;3.42;;;28.20;53.50;;;;;;5035557;28;20017;-81
2021/06/17 10:27:30;;;;;;;6.15;3.90;;;28.20;52.60;;;;;;5036463;28;20021;-80
2021/06/17 10:29:56;;;;;;;3.92;3.53;;;28.30;51.60;;;;;;5035980;28;20029;-79
2021/06/17 10:32:45;;;;;;;5.60;4.00;;;28.30;51.90;;;;;;5053580;28;20064;-79
2021/06/17 10:35:26;;;;;;;5.22;3.97;;;28.30;51.90;;;;;;5041304;28;20078;-79
2021/06/17 10:37:53;;;;;;;8.32;6.07;;;28.30;51.90;;;;;;5035581;28;20024;-78
2021/06/17 10:40:25;;;;;;;9.70;7.43;;;28.30;52.40;;;;;;5035687;28;20040;-78
2021/06/17 10:42:55;;;;;;;8.27;4.78;;;28.30;52.80;;;;;;5035156;28;20094;-79
2021/06/17 10:45:27;;;;;;;6.80;4.05;;;28.30;54.20;;;;;;5050089;28;20029;-80
2021/06/17 10:47:57;;;;;;;7.15;4.22;;;28.40;53.30;;;;;;5051870;28;20160;-80
2021/06/17 10:50:51;;;;;;;5.13;3.88;;;28.60;54.60;;;;;;5046754;28;20028;-81
2021/06/17 10:53:35;;;;;;;5.00;3.63;;;28.60;53.70;;;;;;5055039;28;20041;-79
2021/06/17 10:56:05;;;;;;;6.95;3.67;;;28.70;53.20;;;;;;5055133;28;20474;-80
2021/06/17 10:58:43;;;;;;;9.70;4.65;;;28.80;53.30;;;;;;5050177;28;20087;-80
2021/06/17 11:01:25;;;;;;;5.95;3.53;;;28.80;53.10;;;;;;5044832;28;20287;-79
2021/06/17 11:04:18;;;;;;;5.47;3.80;;;28.90;52.30;;;;;;5054841;28;20086;-81
2021/06/17 11:06:53;;;;;;;6.65;3.55;;;29.00;52.50;;;;;;5041897;28;20023;-81
2021/06/17 11:09:39;;;;;;;4.47;3.10;;;29.10;52.00;;;;;;5062340;28;20025;-80
2021/06/17 11:12:18;;;;;;;4.63;3.75;;;29.20;54.50;;;;;;5053753;28;20056;-81
2021/06/17 11:14:49;;;;;;;6.03;3.97;;;29.30;50.40;;;;;;5052119;28;20343;-82
2021/06/17 11:17:31;;;;;;;5.22;4.13;;;29.40;50.50;;;;;;5046033;28;20121;-83
2021/06/17 11:20:14;;;;;;;4.25;3.38;;;29.40;51.20;;;;;;5055385;28;20047;-82
2021/06/17 11:22:57;;;;;;;5.57;3.58;;;29.40;51.20;;;;;;5051793;28;20210;-80
2021/06/17 11:25:24;;;;;;;6.78;4.18;;;29.40;51.40;;;;;;5054466;28;20028;-81
2021/06/17 11:28:04;;;;;;;4.70;3.60;;;29.50;50.50;;;;;;5055188;28;20017;-80
2021/06/17 11:30:40;;;;;;;6.53;4.20;;;29.70;50.70;;;;;;5039230;28;20021;-81
2021/06/17 11:33:18;;;;;;;7.88;4.25;;;29.80;51.20;;;;;;5045161;28;20163;-81
2021/06/17 11:35:49;;;;;;;5.03;4.28;;;29.80;51.50;;;;;;5058712;28;20584;-81
2021/06/17 11:38:25;;;;;;;7.07;3.70;;;29.90;51.40;;;;;;5051284;28;20046;-80
2021/06/17 11:40:51;;;;;;;5.13;3.97;;;30.00;52.10;;;;;;5049109;28;20025;-80
2021/06/17 11:43:28;;;;;;;8.18;4.10;;;30.10;51.70;;;;;;5050492;28;20148;-80
2021/06/17 11:45:55;;;;;;;6.20;3.88;;;30.20;52.40;;;;;;5029805;28;20032;-80
2021/06/17 11:48:21;;;;;;;9.05;4.20;;;30.20;51.60;;;;;;5056958;28;20025;-81
2021/06/17 11:50:49;;;;;;;6.35;4.22;;;30.20;51.50;;;;;;5035944;28;20025;-81
2021/06/17 11:53:19;;;;;;;6.05;4.22;;;30.20;51.00;;;;;;5027700;28;20025;-82
2021/06/17 11:55:46;;;;;;;7.43;4.25;;;30.30;51.50;;;;;;5051747;28;20476;-81
2021/06/17 11:58:12;;;;;;;5.07;4.25;;;30.40;51.60;;;;;;5020456;28;20351;-80
2021/06/17 12:00:37;;;;;;;4.75;4.00;;;30.40;50.80;;;;;;5019274;28;20031;-81
2021/06/17 12:03:20;;;;;;;6.80;4.30;;;30.50;50.60;;;;;;5037197;28;20029;-81
2021/06/17 12:05:46;;;;;;;4.85;4.28;;;30.50;50.80;;;;;;5038926;28;20021;-81
2021/06/17 12:08:12;;;;;;;5.57;4.45;;;30.50;51.00;;;;;;5037635;28;20399;-82
2021/06/17 12:10:41;;;;;;;6.57;4.30;;;30.60;51.00;;;;;;5018639;28;20029;-81
2021/06/17 12:13:09;;;;;;;9.95;4.68;;;30.60;50.40;;;;;;5017879;28;20077;-81
2021/06/17 12:15:40;;;;;;;6.97;4.13;;;30.70;49.40;;;;;;5031796;28;20032;-78
2021/06/17 12:18:09;;;;;;;6.32;4.15;;;30.80;48.90;;;;;;5038149;28;20462;-79
2021/06/17 12:20:37;;;;;;;4.40;4.00;;;30.90;48.90;;;;;;5019565;28;20061;-80
2021/06/17 12:23:05;;;;;;;5.18;4.40;;;31.00;48.90;;;;;;5028810;28;20028;-81
2021/06/17 12:25:36;;;;;;;6.88;4.05;;;31.10;48.50;;;;;;5018876;28;20094;-83
2021/06/17 12:28:03;;;;;;;;;;;31.30;46.80;;;;;;5034845;28;20032;-80
2021/06/17 12:30:29;;;;;;;10.23;4.50;;;31.30;46.60;;;;;;5038089;28;19915;-81
2021/06/17 12:32:56;;;;;;;6.43;4.25;;;31.40;47.50;;;;;;5037401;28;20021;-80
2021/06/17 12:35:24;;;;;;;5.40;4.18;;;31.60;47.80;;;;;;5037803;28;20082;-80
2021/06/17 12:38:01;;;;;;;6.50;4.50;;;31.80;45.10;;;;;;5039265;28;20048;-80
2021/06/17 12:40:41;;;;;;;6.55;4.07;;;32.00;44.90;;;;;;5018837;28;20029;-81
2021/06/17 12:43:21;;;;;;;5.53;4.32;;;32.10;44.70;;;;;;5033118;28;20053;-81
2021/06/17 12:46:08;;;;;;;6.53;4.45;;;32.30;44.80;;;;;;5053198;28;20031;-78
2021/06/17 12:54:22;;;;;;;4.43;4.03;;;32.50;43.70;;;;;;5065241;28;20032;-87
2021/06/17 12:56:50;;;;;;;65.47;38.65;;;32.60;44.00;;;;;;5056641;28;20089;-85
2021/06/17 12:59:16;;;;;;;34.17;20.30;;;32.50;45.10;;;;;;5048220;28;20044;-87
2021/06/17 13:01:50;;;;;;;7.40;6.10;;;32.50;45.10;;;;;;5046110;28;20033;-82
2021/06/17 13:04:17;;;;;;;5.70;5.00;;;32.60;44.40;;;;;;5056057;28;20342;-81
2021/06/17 13:06:44;;;;;;;5.18;4.47;;;32.70;44.20;;;;;;5054436;28;20025;-82